createdAt,value
2018-11-14T00:01:01.072Z,101671.00
2018-11-14T00:03:30.253Z,101674.00
2018-11-14T00:05:59.437Z,101675.00
2018-11-14T00:08:28.605Z,101670.00
2018-11-14T00:10:57.749Z,101674.00
2018-11-14T00:13:26.925Z,101676.00
2018-11-14T00:15:56.146Z,101680.00
2018-11-14T00:18:25.333Z,101677.00
2018-11-14T00:20:54.499Z,101691.00
2018-11-14T00:23:23.681Z,101694.00
2018-11-14T00:25:52.833Z,101694.00
2018-11-14T00:31:22.182Z,101693.00
2018-11-14T00:33:51.341Z,101691.00
2018-11-14T00:36:20.546Z,101696.00
2018-11-14T00:38:49.757Z,101699.00
2018-11-14T00:41:18.936Z,101691.00
2018-11-14T00:43:48.197Z,101692.00
2018-11-14T00:46:17.359Z,101692.00
2018-11-14T00:48:46.557Z,101699.00
2018-11-14T00:51:15.730Z,101699.00
2018-11-14T00:53:44.930Z,101704.00
2018-11-14T00:56:14.112Z,101699.00
2018-11-14T00:58:43.292Z,101691.00
2018-11-14T01:01:12.436Z,101698.00
2018-11-14T01:03:41.654Z,101700.00
2018-11-14T01:06:10.880Z,101696.00
2018-11-14T01:08:40.194Z,101696.00
2018-11-14T01:11:09.381Z,101693.00
2018-11-14T01:13:38.611Z,101696.00
2018-11-14T01:16:07.755Z,101692.00
2018-11-14T01:18:36.929Z,101696.00
2018-11-14T01:21:06.254Z,101688.00
2018-11-14T01:23:35.497Z,101689.00
2018-11-14T01:26:04.855Z,101692.00
2018-11-14T01:28:34.037Z,101686.00
2018-11-14T01:31:03.195Z,101687.00
2018-11-14T01:33:32.378Z,101687.00
2018-11-14T01:36:01.536Z,101686.00
2018-11-14T01:38:30.721Z,101690.00
2018-11-14T01:40:59.918Z,101706.00
2018-11-14T01:43:29.073Z,101703.00
2018-11-14T01:45:58.262Z,101706.00
2018-11-14T01:48:27.621Z,101704.00
2018-11-14T01:50:56.776Z,101709.00
2018-11-14T01:53:25.928Z,101705.00
2018-11-14T01:55:55.105Z,101707.00
2018-11-14T01:58:24.370Z,101705.00
2018-11-14T02:00:53.583Z,101717.00
2018-11-14T02:03:22.798Z,101707.00
2018-11-14T02:05:51.962Z,101703.00
2018-11-14T02:08:21.161Z,101712.00
2018-11-14T02:10:50.313Z,101710.00
2018-11-14T02:13:19.480Z,101713.00
2018-11-14T02:15:48.682Z,101716.00
2018-11-14T02:18:17.845Z,101701.00
2018-11-14T02:20:47.045Z,101704.00
2018-11-14T02:23:16.223Z,101703.00
2018-11-14T02:25:45.463Z,101703.00
2018-11-14T02:28:14.606Z,101698.00
2018-11-14T02:33:17.083Z,101694.00
2018-11-14T02:35:46.331Z,101695.00
2018-11-14T02:38:15.484Z,101697.00
2018-11-14T02:40:44.781Z,101690.00
2018-11-14T02:43:13.980Z,101686.00
2018-11-14T02:45:43.171Z,101690.00
2018-11-14T02:48:12.368Z,101693.00
2018-11-14T02:50:41.519Z,101696.00
2018-11-14T02:53:10.733Z,101694.00
2018-11-14T02:55:39.904Z,101701.00
2018-11-14T02:58:09.078Z,101696.00
2018-11-14T03:00:38.305Z,101696.00
2018-11-14T03:03:07.514Z,101696.00
2018-11-14T03:05:36.679Z,101697.00
2018-11-14T03:08:06.184Z,101695.00
2018-11-14T03:10:35.325Z,101704.00
2018-11-14T03:13:04.793Z,101697.00
2018-11-14T03:15:33.978Z,101710.00
2018-11-14T03:18:03.137Z,101705.00
2018-11-14T03:20:32.313Z,101714.00
2018-11-14T03:23:01.503Z,101709.00
2018-11-14T03:25:30.685Z,101711.00
2018-11-14T03:27:59.852Z,101719.00
2018-11-14T03:33:29.172Z,101709.00
2018-11-14T03:36:03.734Z,101708.00
2018-11-14T03:38:32.932Z,101713.00
2018-11-14T03:41:02.092Z,101719.00
2018-11-14T03:43:31.286Z,101715.00
2018-11-14T03:46:00.472Z,101714.00
2018-11-14T03:48:29.682Z,101731.00
2018-11-14T03:50:58.846Z,101722.00
2018-11-14T03:53:28.038Z,101731.00
2018-11-14T03:55:57.194Z,101721.00
2018-11-14T03:58:26.466Z,101724.00
2018-11-14T04:00:55.558Z,101723.00
2018-11-14T04:03:24.716Z,101726.00
2018-11-14T04:05:53.913Z,101721.00
2018-11-14T04:08:23.110Z,101726.00
2018-11-14T04:10:52.312Z,101723.00
2018-11-14T04:13:21.478Z,101724.00
2018-11-14T04:15:50.702Z,101729.00
2018-11-14T04:18:19.885Z,101723.00
2018-11-14T04:20:49.151Z,101730.00
2018-11-14T04:23:18.346Z,101727.00
2018-11-14T04:25:47.684Z,101728.00
2018-11-14T04:28:16.838Z,101732.00
2018-11-14T04:31:00.511Z,101727.00
2018-11-14T04:33:58.833Z,101729.00
2018-11-14T04:36:28.043Z,101725.00
2018-11-14T04:38:57.240Z,101729.00
2018-11-14T04:41:26.432Z,101728.00
2018-11-14T04:43:55.581Z,101733.00
2018-11-14T04:46:24.809Z,101734.00
2018-11-14T04:48:53.963Z,101730.00
2018-11-14T04:51:23.132Z,101734.00
2018-11-14T04:53:52.361Z,101736.00
2018-11-14T04:56:21.593Z,101732.00
2018-11-14T04:58:50.741Z,101738.00
2018-11-14T05:01:19.983Z,101735.00
2018-11-14T05:03:49.241Z,101746.00
2018-11-14T05:06:18.569Z,101745.00
2018-11-14T05:09:00.961Z,101750.00
2018-11-14T05:11:30.218Z,101742.00
2018-11-14T05:13:59.415Z,101743.00
2018-11-14T05:16:28.767Z,101739.00
2018-11-14T05:18:57.944Z,101738.00
2018-11-14T05:21:27.208Z,101737.00
2018-11-14T05:23:56.554Z,101745.00
2018-11-14T05:26:26.228Z,101749.00
2018-11-14T05:28:55.958Z,101744.00
2018-11-14T05:31:25.245Z,101751.00
2018-11-14T05:33:54.550Z,101739.00
2018-11-14T05:36:23.789Z,101744.00
2018-11-14T05:38:53.075Z,101737.00
2018-11-14T05:41:22.460Z,101749.00
2018-11-14T05:43:51.720Z,101749.00
2018-11-14T05:46:20.892Z,101751.00
2018-11-14T05:48:50.471Z,101751.00
2018-11-14T05:51:19.709Z,101758.00
2018-11-14T05:53:48.906Z,101763.00
2018-11-14T05:56:18.084Z,101763.00
2018-11-14T05:58:47.414Z,101762.00
2018-11-14T06:01:16.560Z,101756.00
2018-11-14T06:03:45.762Z,101764.00
2018-11-14T06:06:14.920Z,101761.00
2018-11-14T06:08:44.100Z,101760.00
2018-11-14T06:11:13.381Z,101761.00
2018-11-14T06:13:42.581Z,101754.00
2018-11-14T06:16:11.762Z,101766.00
2018-11-14T06:19:00.471Z,101764.00
2018-11-14T06:21:29.712Z,101767.00
2018-11-14T06:23:58.878Z,101774.00
2018-11-14T06:26:28.073Z,101769.00
2018-11-14T06:28:57.309Z,101768.00
2018-11-14T06:31:26.490Z,101768.00
2018-11-14T06:33:55.729Z,101761.00
2018-11-14T06:36:25.147Z,101771.00
2018-11-14T06:38:54.385Z,101770.00
2018-11-14T06:41:23.630Z,101762.00
2018-11-14T06:43:52.832Z,101767.00
2018-11-14T06:49:22.622Z,101763.00
2018-11-14T06:51:51.861Z,101763.00
2018-11-14T06:54:21.190Z,101764.00
2018-11-14T06:56:50.401Z,101768.00
2018-11-14T06:59:19.694Z,101763.00
2018-11-14T07:01:48.822Z,101748.00
2018-11-14T07:04:18.065Z,101756.00
2018-11-14T07:06:47.365Z,101754.00
2018-11-14T07:09:16.514Z,101763.00
2018-11-14T07:11:45.709Z,101767.00
2018-11-14T07:14:14.902Z,101766.00
2018-11-14T07:16:44.113Z,101773.00
2018-11-14T07:19:13.326Z,101778.00
2018-11-14T07:21:42.492Z,101782.00
2018-11-14T07:24:12.050Z,101773.00
2018-11-14T07:26:41.265Z,101771.00
2018-11-14T07:29:10.540Z,101772.00
2018-11-14T07:31:39.782Z,101769.00
2018-11-14T07:34:08.973Z,101767.00
2018-11-14T07:36:38.206Z,101775.00
2018-11-14T07:39:09.764Z,101773.00
2018-11-14T07:42:01.998Z,101785.00
2018-11-14T07:44:31.188Z,101779.00
2018-11-14T07:47:00.446Z,101782.00
2018-11-14T07:49:29.636Z,101777.00
2018-11-14T07:51:58.804Z,101781.00
2018-11-14T07:54:28.180Z,101787.00
2018-11-14T07:56:57.350Z,101777.00
2018-11-14T07:59:26.614Z,101778.00
2018-11-14T08:02:00.524Z,101762.00
2018-11-14T08:04:29.712Z,101782.00
2018-11-14T08:06:58.932Z,101780.00
2018-11-14T08:12:29.084Z,101787.00
2018-11-14T08:14:58.505Z,101785.00
2018-11-14T08:17:27.922Z,101782.00
2018-11-14T08:19:57.287Z,101797.00
2018-11-14T08:22:26.907Z,101791.00
2018-11-14T08:24:56.183Z,101799.00
2018-11-14T08:27:25.310Z,101800.00
2018-11-14T08:29:54.550Z,101797.00
2018-11-14T08:32:23.730Z,101799.00
2018-11-14T08:34:52.885Z,101799.00
2018-11-14T08:37:22.062Z,101813.00
2018-11-14T08:39:51.310Z,101814.00
2018-11-14T08:42:20.504Z,101801.00
2018-11-14T08:44:49.789Z,101801.00
2018-11-14T08:47:19.044Z,101809.00
2018-11-14T08:49:48.221Z,101811.00
2018-11-14T08:52:17.382Z,101803.00
2018-11-14T08:54:46.598Z,101801.00
2018-11-14T08:57:15.981Z,101796.00
2018-11-14T08:59:45.157Z,101806.00
2018-11-14T09:02:14.387Z,101813.00
2018-11-14T09:04:43.583Z,101819.00
2018-11-14T09:07:12.874Z,101813.00
2018-11-14T09:09:42.886Z,101817.00
2018-11-14T09:12:12.169Z,101813.00
2018-11-14T09:14:41.321Z,101823.00
2018-11-14T09:17:10.687Z,101823.00
2018-11-14T09:19:39.917Z,101823.00
2018-11-14T09:22:09.076Z,101816.00
2018-11-14T09:24:38.295Z,101817.00
2018-11-14T09:27:07.585Z,101819.00
2018-11-14T09:29:36.970Z,101822.00
2018-11-14T09:32:06.187Z,101812.00
2018-11-14T09:34:35.409Z,101807.00
2018-11-14T09:37:04.740Z,101813.00
2018-11-14T09:39:34.067Z,101803.00
2018-11-14T09:42:03.310Z,101811.00
2018-11-14T09:44:32.749Z,101819.00
2018-11-14T09:47:01.889Z,101811.00
2018-11-14T09:49:31.339Z,101820.00
2018-11-14T09:52:00.504Z,101814.00
2018-11-14T09:54:29.711Z,101813.00
2018-11-14T09:56:59.503Z,101810.00
2018-11-14T09:59:28.869Z,101815.00
2018-11-14T10:02:04.330Z,101809.00
2018-11-14T10:04:33.514Z,101820.00
2018-11-14T10:07:02.700Z,101817.00
2018-11-14T10:09:31.914Z,101814.00
2018-11-14T10:12:01.121Z,101815.00
2018-11-14T10:14:30.484Z,101823.00
2018-11-14T10:16:59.846Z,101820.00
2018-11-14T10:19:29.166Z,101822.00
2018-11-14T10:21:58.360Z,101818.00
2018-11-14T10:24:28.021Z,101813.00
2018-11-14T10:26:57.297Z,101810.00
2018-11-14T10:29:26.473Z,101815.00
2018-11-14T10:31:59.438Z,101812.00
2018-11-14T10:34:28.632Z,101810.00
2018-11-14T10:36:57.972Z,101809.00
2018-11-14T10:39:27.194Z,101804.00
2018-11-14T10:41:56.439Z,101817.00
2018-11-14T10:44:25.662Z,101812.00
2018-11-14T10:46:54.866Z,101806.00
2018-11-14T10:49:24.090Z,101812.00
2018-11-14T10:51:53.283Z,101814.00
2018-11-14T10:54:22.486Z,101813.00
2018-11-14T10:56:51.728Z,101816.00
2018-11-14T10:59:20.897Z,101803.00
2018-11-14T11:01:59.171Z,101804.00
2018-11-14T11:04:33.886Z,101811.00
2018-11-14T11:07:08.441Z,101809.00
2018-11-14T11:09:43.007Z,101804.00
2018-11-14T11:12:17.641Z,101815.00
2018-11-14T11:14:52.073Z,101821.00
2018-11-14T11:17:26.697Z,101817.00
2018-11-14T11:19:56.112Z,101809.00
2018-11-14T11:22:25.429Z,101812.00
2018-11-14T11:24:54.621Z,101817.00
2018-11-14T11:27:23.963Z,101819.00
2018-11-14T11:29:53.227Z,101820.00
2018-11-14T11:32:22.534Z,101812.00
2018-11-14T11:34:52.294Z,101810.00
2018-11-14T11:37:21.639Z,101802.00
2018-11-14T11:40:03.655Z,101794.00
2018-11-14T11:42:32.885Z,101801.00
2018-11-14T11:45:02.261Z,101803.00
2018-11-14T11:47:31.703Z,101803.00
2018-11-14T11:50:01.271Z,101800.00
2018-11-14T11:52:30.591Z,101807.00
2018-11-14T11:55:03.487Z,101798.00
2018-11-14T11:57:32.852Z,101803.00
2018-11-14T12:00:02.448Z,101800.00
2018-11-14T12:02:31.585Z,101800.00
2018-11-14T12:05:00.769Z,101807.00
2018-11-14T12:07:29.982Z,101807.00
2018-11-14T12:09:59.186Z,101812.00
2018-11-14T12:12:28.479Z,101801.00
2018-11-14T12:14:57.717Z,101816.00
2018-11-14T12:17:26.891Z,101805.00
2018-11-14T12:19:56.141Z,101803.00
2018-11-14T12:25:25.380Z,101804.00
2018-11-14T12:27:54.623Z,101799.00
2018-11-14T12:30:23.840Z,101800.00
2018-11-14T12:32:53.073Z,101802.00
2018-11-14T12:35:22.431Z,101792.00
2018-11-14T12:37:51.606Z,101801.00
2018-11-14T12:40:20.773Z,101801.00
2018-11-14T12:42:50.016Z,101807.00
2018-11-14T12:45:19.291Z,101801.00
2018-11-14T12:47:48.494Z,101795.00
2018-11-14T12:50:17.690Z,101806.00
2018-11-14T12:52:46.946Z,101800.00
2018-11-14T12:55:17.406Z,101803.00
2018-11-14T12:57:46.849Z,101807.00
2018-11-14T13:00:17.685Z,101801.00
2018-11-14T13:02:46.897Z,101813.00
2018-11-14T13:05:16.498Z,101805.00
2018-11-14T13:07:46.156Z,101807.00
2018-11-14T13:10:16.513Z,101812.00
2018-11-14T13:13:01.818Z,101811.00
2018-11-14T13:15:31.052Z,101814.00
2018-11-14T13:18:00.229Z,101818.00
2018-11-14T13:20:29.425Z,101823.00
2018-11-14T13:22:58.686Z,101827.00
2018-11-14T13:25:27.842Z,101828.00
2018-11-14T13:27:57.127Z,101828.00
2018-11-14T13:30:26.280Z,101832.00
2018-11-14T13:32:55.500Z,101823.00
2018-11-14T13:35:25.274Z,101826.00
2018-11-14T13:37:54.475Z,101827.00
2018-11-14T13:40:23.667Z,101839.00
2018-11-14T13:42:52.857Z,101829.00
2018-11-14T13:45:22.019Z,101837.00
2018-11-14T13:47:51.225Z,101836.00
2018-11-14T13:50:22.131Z,101845.00
2018-11-14T13:52:51.393Z,101839.00
2018-11-14T13:55:21.695Z,101840.00
2018-11-14T13:57:51.962Z,101843.00
2018-11-14T14:00:22.255Z,101835.00
2018-11-14T14:02:52.617Z,101841.00
2018-11-14T14:05:23.117Z,101845.00
2018-11-14T14:07:52.360Z,101850.00
2018-11-14T14:10:21.592Z,101843.00
2018-11-14T14:13:03.102Z,101844.00
2018-11-14T14:15:32.327Z,101837.00
2018-11-14T14:18:01.493Z,101843.00
2018-11-14T14:20:30.717Z,101837.00
2018-11-14T14:22:59.900Z,101832.00
2018-11-14T14:25:29.140Z,101837.00
2018-11-14T14:27:58.359Z,101842.00
2018-11-14T14:30:27.679Z,101842.00
2018-11-14T14:32:56.886Z,101842.00
2018-11-14T14:35:26.102Z,101841.00
2018-11-14T14:37:55.486Z,101850.00
2018-11-14T14:43:24.748Z,101848.00
2018-11-14T14:45:54.114Z,101836.00
2018-11-14T14:48:23.317Z,101835.00
2018-11-14T14:50:52.562Z,101829.00
2018-11-14T14:53:21.866Z,101833.00
2018-11-14T14:55:51.062Z,101836.00
2018-11-14T14:58:20.245Z,101836.00
2018-11-14T15:00:49.442Z,101828.00
2018-11-14T15:03:18.720Z,101835.00
2018-11-14T15:05:48.526Z,101831.00
2018-11-14T15:08:17.749Z,101839.00
2018-11-14T15:10:46.973Z,101845.00
2018-11-14T15:13:16.187Z,101828.00
2018-11-14T15:15:45.478Z,101837.00
2018-11-14T15:18:14.689Z,101844.00
2018-11-14T15:20:43.916Z,101842.00
2018-11-14T15:23:13.148Z,101846.00
2018-11-14T15:25:42.419Z,101848.00
2018-11-14T15:28:12.117Z,101854.00
2018-11-14T15:30:41.378Z,101853.00
2018-11-14T15:33:10.643Z,101853.00
2018-11-14T15:35:39.919Z,101852.00
2018-11-14T15:38:09.110Z,101853.00
2018-11-14T15:40:38.705Z,101855.00
2018-11-14T15:43:07.915Z,101859.00
2018-11-14T15:46:00.577Z,101863.00
2018-11-14T15:48:29.901Z,101861.00
2018-11-14T15:51:02.754Z,101874.00
2018-11-14T15:53:31.948Z,101870.00
2018-11-14T15:56:01.230Z,101876.00
2018-11-14T15:58:30.523Z,101877.00
2018-11-14T16:00:59.832Z,101876.00
2018-11-14T16:03:29.099Z,101883.00
2018-11-14T16:05:58.347Z,101884.00
2018-11-14T16:08:29.234Z,101894.00
2018-11-14T16:10:58.601Z,101898.00
2018-11-14T16:13:27.868Z,101892.00
2018-11-14T16:15:57.498Z,101897.00
2018-11-14T16:18:26.915Z,101898.00
2018-11-14T16:20:56.134Z,101894.00
2018-11-14T16:23:25.461Z,101898.00
2018-11-14T16:25:54.645Z,101900.00
2018-11-14T16:28:23.942Z,101900.00
2018-11-14T16:30:53.324Z,101902.00
2018-11-14T16:33:22.655Z,101906.00
2018-11-14T16:35:52.917Z,101901.00
2018-11-14T16:38:22.271Z,101902.00
2018-11-14T16:40:52.001Z,101905.00
2018-11-14T16:43:22.302Z,101905.00
2018-11-14T16:45:52.245Z,101897.00
2018-11-14T16:48:21.586Z,101903.00
2018-11-14T16:50:52.648Z,101904.00
2018-11-14T16:53:22.642Z,101907.00
2018-11-14T16:55:52.039Z,101911.00
2018-11-14T16:58:21.345Z,101913.00
2018-11-14T17:01:03.132Z,101913.00
2018-11-14T17:03:59.516Z,101911.00
2018-11-14T17:06:29.360Z,101917.00
2018-11-14T17:08:58.735Z,101919.00
2018-11-14T17:11:28.005Z,101927.00
2018-11-14T17:14:03.040Z,101922.00
2018-11-14T17:16:32.338Z,101925.00
2018-11-14T17:19:02.405Z,101926.00
2018-11-14T17:21:31.778Z,101918.00
2018-11-14T17:24:02.256Z,101916.00
2018-11-14T17:26:32.219Z,101921.00
2018-11-14T17:29:01.547Z,101922.00
2018-11-14T17:31:30.998Z,101917.00
2018-11-14T17:34:04.566Z,101918.00
2018-11-14T17:36:34.777Z,101922.00
2018-11-14T17:39:06.553Z,101920.00
2018-11-14T17:41:35.946Z,101926.00
2018-11-14T17:44:05.861Z,101919.00
2018-11-14T17:47:06.494Z,101920.00
2018-11-14T17:49:36.491Z,101918.00
2018-11-14T17:52:06.542Z,101920.00
2018-11-14T17:54:35.861Z,101922.00
2018-11-14T17:57:08.100Z,101921.00
2018-11-14T17:59:37.406Z,101925.00
2018-11-14T18:02:07.264Z,101913.00
2018-11-14T18:04:36.660Z,101925.00
2018-11-14T18:07:06.265Z,101919.00
2018-11-14T18:09:35.521Z,101922.00
2018-11-14T18:12:04.853Z,101912.00
2018-11-14T18:14:59.961Z,101913.00
2018-11-14T18:30:00.379Z,101921.00
2018-11-14T18:38:59.804Z,101912.00
2018-11-14T18:59:59.838Z,101939.00
2018-11-14T19:11:59.618Z,101955.00
2018-11-14T19:26:59.811Z,101959.00
2018-11-14T19:29:30.157Z,101945.00
2018-11-14T19:32:04.027Z,101956.00
2018-11-14T19:35:01.373Z,101946.00
2018-11-14T19:38:00.128Z,101945.00
2018-11-14T19:43:59.839Z,101959.00
2018-11-14T19:55:30.960Z,101956.00
2018-11-14T19:58:04.801Z,101961.00
2018-11-14T20:03:59.762Z,101965.00
2018-11-14T20:09:59.527Z,101953.00
2018-11-14T20:12:55.132Z,101962.00
2018-11-14T20:15:26.273Z,101959.00
2018-11-14T20:17:56.362Z,101951.00
2018-11-14T20:20:31.284Z,101946.00
2018-11-14T20:23:01.068Z,101945.00
2018-11-14T20:25:31.180Z,101946.00
2018-11-14T20:28:01.662Z,101944.00
2018-11-14T20:30:59.864Z,101951.00
2018-11-14T20:33:29.555Z,101958.00
2018-11-14T20:35:59.116Z,101948.00
2018-11-14T20:38:28.503Z,101948.00
2018-11-14T20:40:58.765Z,101955.00
2018-11-14T20:46:29.398Z,101957.00
2018-11-14T20:48:59.009Z,101952.00
2018-11-14T20:51:29.058Z,101953.00
2018-11-14T20:53:58.303Z,101940.00
2018-11-14T20:56:27.704Z,101936.00
2018-11-14T20:58:57.292Z,101942.00
2018-11-14T21:01:26.518Z,101944.00
2018-11-14T21:03:55.813Z,101940.00
2018-11-14T21:06:25.369Z,101947.00
2018-11-14T21:08:54.626Z,101954.00
2018-11-14T21:11:23.828Z,101943.00
2018-11-14T21:13:53.160Z,101947.00
2018-11-14T21:16:22.702Z,101941.00
2018-11-14T21:18:51.994Z,101947.00
2018-11-14T21:21:22.056Z,101939.00
2018-11-14T21:23:51.319Z,101947.00
2018-11-14T21:26:20.505Z,101946.00
2018-11-14T21:28:49.728Z,101953.00
2018-11-14T21:31:19.542Z,101951.00
2018-11-14T21:33:48.774Z,101947.00
2018-11-14T21:36:17.970Z,101946.00
2018-11-14T21:38:47.230Z,101942.00
2018-11-14T21:41:16.602Z,101945.00
2018-11-14T21:43:45.930Z,101947.00
2018-11-14T21:46:15.523Z,101938.00
2018-11-14T21:48:45.382Z,101946.00
2018-11-14T21:51:14.664Z,101946.00
2018-11-14T21:53:43.903Z,101953.00
2018-11-14T21:56:13.268Z,101964.00
2018-11-14T21:58:42.553Z,101963.00
2018-11-14T22:01:11.801Z,101972.00
2018-11-14T22:03:41.045Z,101965.00
2018-11-14T22:06:10.270Z,101976.00
2018-11-14T22:08:39.444Z,101971.00
2018-11-14T22:11:08.730Z,101975.00
2018-11-14T22:13:37.956Z,101960.00
2018-11-14T22:16:07.412Z,101963.00
2018-11-14T22:18:36.943Z,101971.00
2018-11-14T22:21:06.369Z,101978.00
2018-11-14T22:24:00.453Z,101974.00
2018-11-14T22:26:29.813Z,101976.00
2018-11-14T22:28:59.014Z,101963.00
2018-11-14T22:31:28.230Z,101969.00
2018-11-14T22:33:57.448Z,101969.00
2018-11-14T22:36:26.708Z,101974.00
2018-11-14T22:38:56.001Z,101970.00
2018-11-14T22:41:25.301Z,101966.00
2018-11-14T22:43:54.613Z,101969.00
2018-11-14T22:46:25.173Z,101970.00
2018-11-14T22:48:54.417Z,101972.00
2018-11-14T22:51:23.683Z,101957.00
2018-11-14T22:53:52.936Z,101959.00
2018-11-14T22:56:22.123Z,101965.00
2018-11-14T22:58:51.420Z,101958.00
2018-11-14T23:01:20.598Z,101954.00
2018-11-14T23:03:49.839Z,101957.00
2018-11-14T23:12:20.162Z,101968.00
2018-11-14T23:14:49.313Z,101968.00
2018-11-14T23:17:18.518Z,101964.00
2018-11-14T23:19:47.884Z,101969.00
2018-11-14T23:22:17.053Z,101961.00
2018-11-14T23:24:46.212Z,101975.00
2018-11-14T23:27:15.431Z,101977.00
2018-11-14T23:29:44.598Z,101977.00
2018-11-14T23:32:13.789Z,101985.00
2018-11-14T23:35:06.942Z,101972.00
2018-11-14T23:37:36.134Z,101958.00
2018-11-14T23:40:05.756Z,101958.00
2018-11-14T23:42:34.952Z,101949.00
2018-11-14T23:45:04.466Z,101960.00
2018-11-14T23:47:33.636Z,101964.00
2018-11-14T23:50:02.832Z,101969.00
2018-11-14T23:52:32.031Z,101971.00
2018-11-14T23:55:01.203Z,101966.00
2018-11-14T23:57:30.397Z,101964.00
2018-11-14T23:59:59.579Z,101963.00
